Time;durP1;ratioP1;P1;durP2;ratioP2;P2;SDS_P1;SDS_P2;PMS_P1;PMS_P2;Temp;Humidity;BMP_temperature;BMP_pressure;BME280_temperature;BME280_humidity;BME280_pressure;Samples;Min_cycle;Max_cycle;Signal;HPM_P1;HPM_P2
2021/12/02 00:00:32;0.00;0.00;0.62;0.00;0.00;0.62;1.70;0.70;;;21.40;28.80;;;;;;2230036;62;20475;-67
2021/12/02 00:03:18;0.00;0.00;0.62;0.00;0.00;0.62;2.07;0.80;;;21.40;28.70;;;;;;2229000;62;20442;-67
2021/12/02 00:06:04;0.00;0.00;0.62;0.00;0.00;0.62;1.80;0.90;;;21.40;29.20;;;;;;2230288;62;20376;-67
2021/12/02 00:08:52;0.00;0.00;0.62;0.00;0.00;0.62;1.33;0.70;;;21.40;28.70;;;;;;2229617;62;20369;-67
2021/12/02 00:11:37;0.00;0.00;0.62;0.00;0.00;0.62;1.40;0.80;;;21.40;28.70;;;;;;2230379;62;20558;-67
2021/12/02 00:14:25;0.00;0.00;0.62;0.00;0.00;0.62;1.33;0.60;;;21.40;28.70;;;;;;2230514;62;20432;-67
2021/12/02 00:17:33;0.00;0.00;0.62;0.00;0.00;0.62;1.67;0.80;;;21.40;28.70;;;;;;2229598;62;20477;-67
2021/12/02 00:23:34;0.00;0.00;0.62;0.00;0.00;0.62;1.73;0.60;;;21.40;28.70;;;;;;2230770;62;20388;-67
2021/12/02 00:26:22;0.00;0.00;0.62;0.00;0.00;0.62;1.50;0.70;;;21.40;28.70;;;;;;2230488;62;20392;-67
2021/12/02 00:29:09;0.00;0.00;0.62;0.00;0.00;0.62;1.70;0.80;;;21.40;28.70;;;;;;2230463;62;20393;-67
2021/12/02 00:31:53;0.00;0.00;0.62;0.00;0.00;0.62;1.30;0.60;;;21.40;28.70;;;;;;2228965;62;20437;-68
2021/12/02 00:34:43;0.00;0.00;0.62;0.00;0.00;0.62;1.20;0.60;;;21.40;28.70;;;;;;2230368;62;20373;-67
2021/12/02 00:37:28;0.00;0.00;0.62;0.00;0.00;0.62;1.60;0.77;;;21.40;28.70;;;;;;2230529;62;20404;-67
2021/12/02 00:40:13;0.00;0.00;0.62;0.00;0.00;0.62;1.33;0.60;;;21.40;28.70;;;;;;2229423;62;20369;-67
2021/12/02 00:42:59;0.00;0.00;0.62;0.00;0.00;0.62;3.53;0.90;;;21.40;28.70;;;;;;2230352;62;20392;-67
2021/12/02 00:45:45;0.00;0.00;0.62;0.00;0.00;0.62;1.23;0.70;;;21.40;28.70;;;;;;2229561;62;20749;-67
2021/12/02 00:48:33;0.00;0.00;0.62;0.00;0.00;0.62;1.83;1.07;;;21.40;28.70;;;;;;2230478;62;20365;-68
2021/12/02 00:51:19;0.00;0.00;0.62;0.00;0.00;0.62;1.30;0.60;;;21.40;28.70;;;;;;2230265;62;20585;-67
2021/12/02 00:54:06;0.00;0.00;0.62;0.00;0.00;0.62;1.30;0.60;;;21.40;28.70;;;;;;2229419;62;20438;-67
2021/12/02 00:56:52;0.00;0.00;0.62;0.00;0.00;0.62;1.40;0.73;;;21.40;28.70;;;;;;2230010;62;20665;-66
2021/12/02 00:59:39;0.00;0.00;0.62;0.00;0.00;0.62;3.83;0.70;;;21.40;28.70;;;;;;2230727;62;20414;-67
2021/12/02 01:02:25;0.00;0.00;0.62;0.00;0.00;0.62;1.30;0.60;;;21.40;28.60;;;;;;2229424;62;20396;-68
2021/12/02 01:05:09;0.00;0.00;0.62;0.00;0.00;0.62;1.40;0.70;;;21.40;28.60;;;;;;2230292;62;20410;-67
2021/12/02 01:07:54;0.00;0.00;0.62;0.00;0.00;0.62;3.23;0.93;;;21.40;28.30;;;;;;2229856;62;20369;-67
2021/12/02 01:10:41;0.00;0.00;0.62;0.00;0.00;0.62;2.07;1.00;;;21.40;27.80;;;;;;2230441;62;20353;-67
2021/12/02 01:13:26;0.00;0.00;0.62;0.00;0.00;0.62;3.20;1.00;;;21.40;27.60;;;;;;2230115;62;20470;-67
2021/12/02 01:16:12;0.00;0.00;0.62;0.00;0.00;0.62;2.00;1.10;;;21.30;27.00;;;;;;2229362;62;20388;-67
2021/12/02 01:18:56;0.00;0.00;0.62;0.00;0.00;0.62;3.03;1.40;;;21.20;26.80;;;;;;2230342;62;20377;-67
2021/12/02 01:21:43;0.00;0.00;0.62;0.00;0.00;0.62;3.30;1.17;;;21.20;26.60;;;;;;2230436;62;20429;-67
2021/12/02 01:24:30;0.00;0.00;0.62;0.00;0.00;0.62;2.93;1.10;;;21.10;26.50;;;;;;2229294;62;20405;-67
2021/12/02 01:27:14;0.00;0.00;0.62;0.00;0.00;0.62;4.00;1.40;;;21.00;26.30;;;;;;2230122;62;20434;-67
2021/12/02 01:30:00;0.00;0.00;0.62;0.00;0.00;0.62;2.97;1.40;;;20.90;26.10;;;;;;2230352;62;20588;-67
2021/12/02 01:32:48;0.00;0.00;0.62;0.00;0.00;0.62;3.17;0.93;;;20.80;26.20;;;;;;2230394;62;20464;-67
2021/12/02 01:35:34;0.00;0.00;0.62;0.00;0.00;0.62;3.40;1.20;;;20.70;26.20;;;;;;2230219;62;20442;-67
2021/12/02 01:38:22;0.00;0.00;0.62;0.00;0.00;0.62;6.73;1.40;;;20.70;26.00;;;;;;2228876;62;20445;-67
2021/12/02 01:41:06;0.00;0.00;0.62;0.00;0.00;0.62;4.37;1.57;;;20.60;26.10;;;;;;2230128;62;20394;-67
2021/12/02 01:43:53;0.00;0.00;0.62;0.00;0.00;0.62;2.00;1.20;;;20.50;26.00;;;;;;2230450;62;20361;-67
2021/12/02 01:46:41;0.00;0.00;0.62;0.00;0.00;0.62;4.13;1.33;;;20.50;26.00;;;;;;2229421;62;20745;-67
2021/12/02 01:49:32;0.00;0.00;0.62;0.00;0.00;0.62;2.23;0.90;;;20.40;25.90;;;;;;2230226;62;20731;-67
2021/12/02 01:52:21;0.00;0.00;0.62;0.00;0.00;0.62;4.43;1.00;;;20.30;26.00;;;;;;2229657;62;20397;-67
2021/12/02 01:55:10;0.00;0.00;0.62;0.00;0.00;0.62;2.73;1.10;;;20.20;26.00;;;;;;2230447;62;20399;-67
2021/12/02 01:58:00;0.00;0.00;0.62;0.00;0.00;0.62;2.40;1.00;;;20.20;26.00;;;;;;2230269;62;20652;-66
2021/12/02 02:00:45;0.00;0.00;0.62;0.00;0.00;0.62;2.40;1.00;;;20.10;25.90;;;;;;2229261;62;20357;-66
2021/12/02 02:03:29;0.00;0.00;0.62;0.00;0.00;0.62;3.30;1.30;;;20.00;25.80;;;;;;2230180;62;20393;-66
2021/12/02 02:06:24;0.00;0.00;0.62;0.00;0.00;0.62;5.80;1.37;;;20.00;25.80;;;;;;2229921;62;20730;-66
2021/12/02 02:09:09;0.00;0.00;0.62;0.00;0.00;0.62;3.10;1.17;;;19.90;25.80;;;;;;2229695;62;20446;-65
2021/12/02 02:11:54;0.00;0.00;0.62;0.00;0.00;0.62;3.00;1.27;;;19.90;25.90;;;;;;2230053;62;20437;-66
2021/12/02 02:14:40;0.00;0.00;0.62;0.00;0.00;0.62;2.70;1.30;;;19.80;25.90;;;;;;2231411;62;20418;-65
2021/12/02 02:17:32;0.00;0.00;0.62;0.00;0.00;0.62;3.10;1.10;;;19.80;25.90;;;;;;2230391;62;20426;-65
2021/12/02 02:20:23;0.00;0.00;0.62;0.00;0.00;0.62;2.93;1.37;;;19.80;25.90;;;;;;2230192;62;20498;-65
2021/12/02 02:23:12;0.00;0.00;0.62;0.00;0.00;0.62;2.90;1.10;;;19.70;25.80;;;;;;2231489;62;20401;-65
2021/12/02 02:25:57;0.00;0.00;0.62;0.00;0.00;0.62;4.50;1.30;;;19.60;25.80;;;;;;2229915;62;20732;-65
2021/12/02 02:28:42;0.00;0.00;0.62;0.00;0.00;0.62;3.30;1.60;;;19.60;25.90;;;;;;2229691;62;20398;-66
2021/12/02 02:31:29;0.00;0.00;0.62;0.00;0.00;0.62;3.60;1.00;;;19.60;25.80;;;;;;2229310;62;20434;-66
2021/12/02 02:34:14;0.00;0.00;0.62;0.00;0.00;0.62;2.80;1.20;;;19.50;25.70;;;;;;2229982;62;20439;-66
2021/12/02 02:37:03;0.00;0.00;0.62;0.00;0.00;0.62;3.10;1.10;;;19.50;25.70;;;;;;2229193;62;20429;-66
2021/12/02 02:39:48;0.00;0.00;0.62;0.00;0.00;0.62;3.20;1.30;;;19.40;25.60;;;;;;2229912;62;20491;-66
2021/12/02 02:42:33;0.00;0.00;0.62;0.00;0.00;0.62;2.77;1.47;;;19.40;25.60;;;;;;2229997;62;20426;-67
2021/12/02 02:45:17;0.00;0.00;0.62;0.00;0.00;0.62;4.70;1.30;;;19.30;25.60;;;;;;2229332;62;20573;-66
2021/12/02 02:48:02;0.00;0.00;0.62;0.00;0.00;0.62;3.33;1.47;;;19.30;25.60;;;;;;2230008;62;20392;-67
2021/12/02 02:50:47;0.00;0.00;0.62;0.00;0.00;0.62;3.70;1.23;;;19.20;25.60;;;;;;2229606;62;20417;-66
2021/12/02 02:53:34;0.00;0.00;0.62;0.00;0.00;0.62;5.40;1.87;;;19.20;25.70;;;;;;2229395;62;20436;-66
2021/12/02 02:56:21;0.00;0.00;0.62;0.00;0.00;0.62;2.40;1.23;;;19.10;25.60;;;;;;2229887;62;20389;-66
2021/12/02 03:02:22;0.00;0.00;0.62;0.00;0.00;0.62;3.37;1.20;;;19.00;25.60;;;;;;2229925;62;20414;-67
2021/12/02 03:07:59;0.00;0.00;0.62;0.00;0.00;0.62;3.33;1.40;;;19.00;25.80;;;;;;2229220;62;20758;-66
2021/12/02 03:10:57;0.00;0.00;0.62;0.00;0.00;0.62;3.80;1.40;;;18.90;25.70;;;;;;2229748;62;20423;-66
2021/12/02 03:13:53;0.00;0.00;0.62;0.00;0.00;0.62;4.47;1.70;;;18.90;25.70;;;;;;2229427;62;20614;-66
2021/12/02 03:16:44;0.00;0.00;0.62;0.00;0.00;0.62;3.30;1.23;;;18.90;25.70;;;;;;2229952;62;20434;-66
2021/12/02 03:19:29;0.00;0.00;0.62;0.00;0.00;0.62;4.80;1.67;;;18.80;25.70;;;;;;2229751;62;20377;-66
2021/12/02 03:22:17;0.00;0.00;0.62;0.00;0.00;0.62;2.43;1.30;;;18.80;25.70;;;;;;2228886;62;20385;-67
2021/12/02 03:25:03;0.00;0.00;0.62;0.00;0.00;0.62;4.80;1.50;;;18.80;25.80;;;;;;2229735;62;20373;-66
2021/12/02 03:27:49;0.00;0.00;0.62;0.00;0.00;0.62;3.20;1.70;;;18.70;25.60;;;;;;2230085;62;20364;-66
2021/12/02 03:30:35;0.00;0.00;0.62;0.00;0.00;0.62;3.20;1.20;;;18.70;25.60;;;;;;2229109;62;20378;-66
2021/12/02 03:33:20;0.00;0.00;0.62;0.00;0.00;0.62;3.30;1.23;;;18.70;25.70;;;;;;2229690;62;20506;-66
2021/12/02 03:36:04;0.00;0.00;0.62;0.00;0.00;0.62;3.50;0.90;;;18.60;25.60;;;;;;2229028;62;20382;-66
2021/12/02 03:38:49;0.00;0.00;0.62;0.00;0.00;0.62;5.20;1.27;;;18.60;25.60;;;;;;2229923;62;20369;-66
2021/12/02 03:41:35;0.00;0.00;0.62;0.00;0.00;0.62;2.00;1.00;;;18.60;25.60;;;;;;2229910;62;20437;-66
2021/12/02 03:44:22;0.00;0.00;0.62;0.00;0.00;0.62;2.80;0.90;;;18.60;25.60;;;;;;2229024;62;20421;-66
2021/12/02 03:47:07;0.00;0.00;0.62;0.00;0.00;0.62;1.90;1.10;;;18.60;25.60;;;;;;2229526;62;20478;-66
2021/12/02 03:49:53;0.00;0.00;0.62;0.00;0.00;0.62;2.87;1.30;;;18.60;25.60;;;;;;2230128;62;20378;-66
2021/12/02 03:52:37;0.00;0.00;0.62;0.00;0.00;0.62;2.30;0.90;;;18.50;25.60;;;;;;2228841;62;20389;-66
2021/12/02 03:55:24;0.00;0.00;0.62;0.00;0.00;0.62;1.90;1.00;;;18.60;25.70;;;;;;2229915;62;20606;-66
2021/12/02 03:58:09;0.00;0.00;0.62;0.00;0.00;0.62;4.50;1.40;;;18.60;25.80;;;;;;2229199;62;20384;-66
2021/12/02 04:00:55;0.00;0.00;0.62;0.00;0.00;0.62;3.33;1.10;;;18.60;25.90;;;;;;2229826;62;20423;-66
2021/12/02 04:03:41;0.00;0.00;0.62;0.00;0.00;0.62;4.47;1.43;;;18.60;25.90;;;;;;2229950;62;20462;-66
2021/12/02 04:06:25;0.00;0.00;0.62;0.00;0.00;0.62;2.33;0.97;;;18.60;25.80;;;;;;2229013;62;20729;-66
2021/12/02 04:09:20;0.00;0.00;0.62;0.00;0.00;0.62;2.07;1.00;;;18.60;25.70;;;;;;2229781;62;20571;-66
2021/12/02 04:13:16;0.00;0.00;0.62;0.00;0.00;0.62;3.50;1.27;;;18.60;25.60;;;;;;2229928;62;20473;-66
2021/12/02 04:15:30;0.00;0.00;0.62;0.00;0.00;0.62;3.53;1.00;;;18.60;25.60;;;;;;2228396;62;20377;-66
2021/12/02 04:18:15;0.00;0.00;0.62;0.00;0.00;0.62;2.93;1.37;;;18.60;25.60;;;;;;2229917;62;20406;-66
2021/12/02 04:21:00;0.00;0.00;0.62;0.00;0.00;0.62;4.57;1.00;;;18.50;25.50;;;;;;2228846;62;20487;-66
2021/12/02 04:23:45;0.00;0.00;0.62;0.00;0.00;0.62;4.60;1.20;;;18.50;25.50;;;;;;2229776;62;20748;-66
2021/12/02 04:26:29;0.00;0.00;0.62;0.00;0.00;0.62;4.50;1.30;;;18.50;25.50;;;;;;2229949;62;20364;-66
2021/12/02 04:29:14;0.00;0.00;0.62;0.00;0.00;0.62;5.43;1.30;;;18.50;25.50;;;;;;2228785;62;20365;-66
2021/12/02 04:31:58;0.00;0.00;0.62;0.00;0.00;0.62;3.90;1.20;;;18.50;25.50;;;;;;2229594;62;20755;-66
2021/12/02 04:34:44;0.00;0.00;0.62;0.00;0.00;0.62;2.63;1.23;;;18.40;25.50;;;;;;2230036;62;20384;-67
2021/12/02 04:37:29;0.00;0.00;0.62;0.00;0.00;0.62;2.73;1.20;;;18.40;25.50;;;;;;2229305;62;20582;-66
2021/12/02 04:40:18;0.00;0.00;0.62;0.00;0.00;0.62;2.87;1.20;;;18.40;25.50;;;;;;2229697;62;20401;-66
2021/12/02 04:43:03;0.00;0.00;0.62;0.00;0.00;0.62;3.23;1.40;;;18.40;25.50;;;;;;2228669;62;20388;-66
2021/12/02 04:45:48;0.00;0.00;0.62;0.00;0.00;0.62;3.30;1.50;;;18.40;25.50;;;;;;2229839;62;20369;-66
2021/12/02 04:48:33;0.00;0.00;0.62;0.00;0.00;0.62;2.60;1.00;;;18.40;25.50;;;;;;2229948;62;20598;-66
2021/12/02 04:51:19;0.00;0.00;0.62;0.00;0.00;0.62;3.10;1.10;;;18.40;25.60;;;;;;2229158;62;20753;-66
2021/12/02 04:54:03;0.00;0.00;0.62;0.00;0.00;0.62;4.37;1.13;;;18.40;25.70;;;;;;2230319;62;20449;-66
2021/12/02 04:56:48;0.00;0.00;0.62;0.00;0.00;0.62;3.20;1.23;;;18.40;25.70;;;;;;2230429;62;20432;-66
2021/12/02 04:59:32;0.00;0.00;0.62;0.00;0.00;0.62;4.53;1.30;;;18.40;25.70;;;;;;2229696;62;20400;-66
2021/12/02 05:02:17;0.00;0.00;0.62;0.00;0.00;0.62;2.93;1.07;;;18.40;25.70;;;;;;2230153;62;20442;-66
2021/12/02 05:05:01;0.00;0.00;0.62;0.00;0.00;0.62;2.73;1.30;;;18.40;25.60;;;;;;2229265;62;20637;-66
2021/12/02 05:07:49;0.00;0.00;0.62;0.00;0.00;0.62;3.20;1.20;;;18.30;25.40;;;;;;2230550;62;20369;-66
2021/12/02 05:10:33;0.00;0.00;0.62;0.00;0.00;0.62;4.70;1.50;;;18.30;25.40;;;;;;2230040;62;20452;-65
2021/12/02 05:13:18;0.00;0.00;0.62;0.00;0.00;0.62;3.00;1.20;;;18.30;25.40;;;;;;2229337;62;20347;-66
2021/12/02 05:16:03;0.00;0.00;0.62;0.00;0.00;0.62;3.40;1.20;;;18.30;25.40;;;;;;2230321;62;20437;-65
2021/12/02 05:18:48;0.00;0.00;0.62;0.00;0.00;0.62;2.40;0.97;;;18.30;25.40;;;;;;2230214;62;20394;-66
2021/12/02 05:21:32;0.00;0.00;0.62;0.00;0.00;0.62;2.70;1.20;;;18.30;25.40;;;;;;2229543;62;20632;-66
2021/12/02 05:24:18;0.00;0.00;0.62;0.00;0.00;0.62;2.53;1.03;;;18.30;25.40;;;;;;2230224;62;20406;-65
2021/12/02 05:27:04;0.00;0.00;0.62;0.00;0.00;0.62;4.20;2.10;;;18.30;25.40;;;;;;2229215;62;20773;-65
2021/12/02 05:29:48;0.00;0.00;0.62;0.00;0.00;0.62;4.67;1.13;;;18.20;25.30;;;;;;2230552;62;20501;-65
2021/12/02 05:32:33;0.00;0.00;0.62;0.00;0.00;0.62;3.23;1.30;;;18.20;25.30;;;;;;2230131;62;20430;-66
2021/12/02 05:35:18;0.00;0.00;0.62;0.00;0.00;0.62;2.67;1.00;;;18.20;25.30;;;;;;2229480;62;20369;-66
2021/12/02 05:38:03;0.00;0.00;0.62;0.00;0.00;0.62;3.87;1.03;;;18.20;25.40;;;;;;2230159;62;20397;-66
2021/12/02 05:40:49;0.00;0.00;0.62;0.00;0.00;0.62;2.80;1.30;;;18.20;25.50;;;;;;2230148;62;20369;-66
2021/12/02 05:43:34;0.00;0.00;0.62;0.00;0.00;0.62;2.80;1.47;;;18.20;25.50;;;;;;2229509;62;20861;-65
2021/12/02 05:46:19;0.00;0.00;0.62;0.00;0.00;0.62;3.93;1.00;;;18.20;25.50;;;;;;2230025;62;20487;-65
2021/12/02 05:49:04;0.00;0.00;0.62;0.00;0.00;0.62;4.10;1.40;;;18.20;25.60;;;;;;2229946;62;20373;-68
2021/12/02 05:51:48;0.00;0.00;0.62;0.00;0.00;0.62;3.00;1.13;;;18.20;26.20;;;;;;2230334;62;20492;-66
2021/12/02 05:54:33;0.00;0.00;0.62;0.00;0.00;0.62;3.10;0.90;;;18.20;25.60;;;;;;2230037;62;20647;-65
2021/12/02 05:57:19;0.00;0.00;0.62;0.00;0.00;0.62;2.83;0.80;;;18.20;25.60;;;;;;2229346;62;20601;-66
2021/12/02 06:00:07;0.00;0.00;0.62;0.00;0.00;0.62;3.27;1.30;;;18.20;25.60;;;;;;2230063;62;20373;-65
2021/12/02 06:02:56;0.00;0.00;0.62;0.00;0.00;0.62;4.60;1.40;;;18.20;25.70;;;;;;2230024;62;20402;-66
2021/12/02 06:05:42;0.00;0.00;0.62;0.00;0.00;0.62;3.93;1.57;;;18.20;25.70;;;;;;2229402;62;20391;-66
2021/12/02 06:08:27;0.00;0.00;0.62;0.00;0.00;0.62;3.20;1.20;;;18.20;25.70;;;;;;2229932;62;20398;-66
2021/12/02 06:11:11;0.00;0.00;0.62;0.00;0.00;0.62;1.90;1.13;;;18.20;25.70;;;;;;2230160;62;20356;-66
2021/12/02 06:13:57;0.00;0.00;0.62;0.00;0.00;0.62;3.77;1.13;;;18.20;25.70;;;;;;2230217;62;20715;-65
2021/12/02 06:16:42;0.00;0.00;0.62;0.00;0.00;0.62;2.30;1.27;;;18.20;25.70;;;;;;2229960;62;20772;-65
2021/12/02 06:19:27;0.00;0.00;0.62;0.00;0.00;0.62;3.53;1.13;;;18.20;25.60;;;;;;2229300;62;20362;-65
2021/12/02 06:22:13;0.00;0.00;0.62;0.00;0.00;0.62;2.80;0.90;;;18.20;25.60;;;;;;2229766;62;20392;-66
2021/12/02 06:27:58;0.00;0.00;0.62;0.00;0.00;0.62;2.00;1.10;;;18.20;25.50;;;;;;2229249;62;20761;-66
2021/12/02 06:30:44;0.00;0.00;0.62;0.00;0.00;0.62;2.53;1.07;;;18.20;25.50;;;;;;2229815;62;20365;-66
2021/12/02 06:33:28;0.00;0.00;0.62;0.00;0.00;0.62;2.33;1.07;;;18.20;25.60;;;;;;2229787;62;20393;-66
2021/12/02 06:36:14;0.00;0.00;0.62;0.00;0.00;0.62;4.20;1.20;;;18.20;25.60;;;;;;2230107;62;20369;-66
2021/12/02 06:38:59;0.00;0.00;0.62;0.00;0.00;0.62;1.73;0.93;;;18.20;25.70;;;;;;2230118;62;20414;-66
2021/12/02 06:41:44;0.00;0.00;0.62;0.00;0.00;0.62;2.60;0.90;;;18.20;25.70;;;;;;2228815;62;20768;-66
2021/12/02 06:44:29;0.00;0.00;0.62;0.00;0.00;0.62;2.27;1.00;;;18.30;25.80;;;;;;2229929;62;20890;-67
2021/12/02 06:47:15;0.00;0.00;0.62;0.00;0.00;0.62;2.23;0.90;;;18.30;25.80;;;;;;2230101;62;20593;-66
2021/12/02 06:50:02;0.00;0.00;0.62;0.00;0.00;0.62;3.10;1.13;;;18.30;25.90;;;;;;2229027;62;20414;-66
2021/12/02 06:52:49;0.00;0.00;0.62;0.00;0.00;0.62;3.33;1.47;;;18.30;25.90;;;;;;2229767;62;20437;-63
2021/12/02 06:55:34;0.00;0.00;0.62;0.00;0.00;0.62;1.60;1.00;;;18.40;25.90;;;;;;2230155;62;20406;-66
2021/12/02 06:58:19;0.00;0.00;0.62;0.00;0.00;0.62;1.97;0.90;;;18.40;25.90;;;;;;2229941;62;20625;-66
2021/12/02 07:01:03;0.00;0.00;0.62;0.00;0.00;0.62;3.13;1.10;;;18.40;25.90;;;;;;2229879;62;20700;-67
2021/12/02 07:03:49;0.00;0.00;0.62;0.00;0.00;0.62;2.03;0.90;;;18.40;26.00;;;;;;2229164;62;20369;-66
2021/12/02 07:06:36;0.00;0.00;0.62;0.00;0.00;0.62;2.00;0.90;;;18.50;26.00;;;;;;2229817;62;20434;-66
2021/12/02 07:09:21;0.00;0.00;0.62;0.00;0.00;0.62;1.63;0.80;;;18.50;26.00;;;;;;2230126;62;20361;-67
2021/12/02 07:12:07;0.00;0.00;0.62;0.00;0.00;0.62;2.70;1.13;;;18.50;26.00;;;;;;2228818;62;20438;-66
2021/12/02 07:14:51;0.00;0.00;0.62;0.00;0.00;0.62;3.53;1.23;;;18.50;26.00;;;;;;2229956;62;20365;-67
2021/12/02 07:17:36;0.00;0.00;0.62;0.00;0.00;0.62;2.07;1.03;;;18.50;26.00;;;;;;2230061;62;20404;-66
2021/12/02 07:20:22;0.00;0.00;0.62;0.00;0.00;0.62;2.37;1.10;;;18.60;26.10;;;;;;2229670;62;20373;-67
2021/12/02 07:23:07;0.00;0.00;0.62;0.00;0.00;0.62;1.83;1.00;;;18.60;26.00;;;;;;2229964;62;20389;-67
2021/12/02 07:25:52;0.00;0.00;0.62;0.00;0.00;0.62;2.70;1.03;;;18.60;26.00;;;;;;2228852;62;20410;-67
2021/12/02 07:28:36;0.00;0.00;0.62;0.00;0.00;0.62;3.20;1.33;;;18.60;26.00;;;;;;2229971;62;20448;-67
2021/12/02 07:31:22;0.00;0.00;0.62;0.00;0.00;0.62;2.70;1.20;;;18.60;26.00;;;;;;2229996;62;20622;-67
2021/12/02 07:34:08;0.00;0.00;0.62;0.00;0.00;0.62;2.40;1.17;;;18.60;26.00;;;;;;2229098;62;20475;-67
2021/12/02 07:36:56;0.00;0.00;0.62;0.00;0.00;0.62;3.30;1.07;;;18.70;26.10;;;;;;2229883;62;20392;-67
2021/12/02 07:39:42;0.00;0.00;0.62;0.00;0.00;0.62;1.60;0.97;;;18.70;26.10;;;;;;2230083;62;20471;-67
2021/12/02 07:42:27;0.00;0.00;0.62;0.00;0.00;0.62;1.73;0.90;;;18.70;26.10;;;;;;2229363;62;20685;-67
2021/12/02 07:45:11;0.00;0.00;0.62;0.00;0.00;0.62;3.70;1.17;;;18.70;26.10;;;;;;2229836;62;20366;-67
2021/12/02 07:47:56;0.00;0.00;0.62;0.00;0.00;0.62;4.50;1.50;;;18.70;26.00;;;;;;2228835;62;20365;-67
2021/12/02 07:50:41;0.00;0.00;0.62;0.00;0.00;0.62;2.60;1.17;;;18.70;26.00;;;;;;2230013;62;20397;-67
2021/12/02 07:53:28;0.00;0.00;0.62;0.00;0.00;0.62;2.53;0.80;;;18.70;26.00;;;;;;2229992;62;20434;-67
2021/12/02 07:56:16;0.00;0.00;0.62;0.00;0.00;0.62;2.83;1.00;;;18.70;26.10;;;;;;2228976;62;20373;-66
2021/12/02 07:59:01;0.00;0.00;0.62;0.00;0.00;0.62;4.17;1.27;;;18.80;26.20;;;;;;2229802;62;20395;-67
2021/12/02 08:01:48;0.00;0.00;0.62;0.00;0.00;0.62;2.80;1.40;;;18.70;26.10;;;;;;2229812;62;20466;-67
2021/12/02 08:04:32;0.00;0.00;0.62;0.00;0.00;0.62;3.80;1.60;;;18.80;26.20;;;;;;2229076;62;20373;-67
2021/12/02 08:07:17;0.00;0.00;0.62;0.00;0.00;0.62;2.00;1.00;;;18.80;26.70;;;;;;2229696;62;20744;-67
2021/12/02 08:10:03;0.00;0.00;0.62;0.00;0.00;0.62;2.40;1.13;;;18.80;26.20;;;;;;2228937;62;20396;-66
2021/12/02 08:12:50;0.00;0.00;0.62;0.00;0.00;0.62;3.27;1.30;;;18.80;26.20;;;;;;2229935;62;20400;-67
2021/12/02 08:15:35;0.00;0.00;0.62;0.00;0.00;0.62;3.70;1.70;;;18.80;26.20;;;;;;2229906;62;20414;-67
2021/12/02 08:18:19;0.00;0.00;0.62;0.00;0.00;0.62;4.43;1.47;;;18.80;26.20;;;;;;2228865;62;20393;-67
2021/12/02 08:21:04;0.00;0.00;0.62;0.00;0.00;0.62;2.20;1.10;;;18.80;26.20;;;;;;2231682;62;20621;-65
2021/12/02 08:23:50;0.00;0.00;0.62;0.00;0.00;0.62;3.10;1.13;;;18.80;26.20;;;;;;2226560;62;20368;-65
2021/12/02 08:26:36;0.00;0.00;0.62;0.00;0.00;0.62;2.00;1.20;;;18.90;26.20;;;;;;2229595;62;20413;-66
2021/12/02 08:29:22;0.00;0.00;0.62;0.00;0.00;0.62;2.67;1.13;;;18.80;26.20;;;;;;2230372;62;20373;-67
2021/12/02 08:32:06;0.00;0.00;0.62;0.00;0.00;0.62;2.43;1.10;;;18.80;26.10;;;;;;2229239;62;20385;-66
2021/12/02 08:34:53;0.00;0.00;0.62;0.00;0.00;0.62;2.70;1.23;;;18.80;26.20;;;;;;2230537;62;20414;-67
2021/12/02 08:37:43;0.00;0.00;0.62;0.00;0.00;0.62;1.80;1.20;;;18.90;26.20;;;;;;2230490;62;20395;-67
2021/12/02 08:40:37;0.00;0.00;0.62;0.00;0.00;0.62;3.40;1.20;;;18.90;26.20;;;;;;2229592;62;20766;-69
2021/12/02 08:43:23;0.00;0.00;0.62;0.00;0.00;0.62;1.90;1.10;;;18.90;26.30;;;;;;2230283;62;20389;-66
2021/12/02 08:46:08;0.00;0.00;0.62;0.00;0.00;0.62;2.13;1.30;;;18.90;26.30;;;;;;2230409;62;20418;-69
2021/12/02 08:48:53;0.00;0.00;0.62;0.00;0.00;0.62;2.60;1.13;;;18.90;26.30;;;;;;2229663;62;20413;-65
2021/12/02 08:51:39;0.00;0.00;0.62;0.00;0.00;0.62;2.30;1.10;;;18.90;26.30;;;;;;2230149;62;20809;-69
2021/12/02 08:54:23;0.00;0.00;0.62;0.00;0.00;0.62;2.80;1.30;;;18.90;26.30;;;;;;2227894;62;20380;-68
2021/12/02 08:57:08;0.00;0.00;0.62;0.00;0.00;0.62;2.83;1.57;;;18.90;26.30;;;;;;2230554;62;20385;-66
2021/12/02 08:59:58;0.00;0.00;0.62;0.00;0.00;0.62;2.57;1.63;;;18.90;26.30;;;;;;2230404;62;20449;-67
2021/12/02 09:02:45;0.00;0.00;0.62;0.00;0.00;0.62;1.90;1.10;;;18.90;26.30;;;;;;2229366;62;20879;-66
2021/12/02 09:05:30;0.00;0.00;0.62;0.00;0.00;0.62;2.63;1.37;;;18.90;26.30;;;;;;2230339;62;20374;-66
2021/12/02 09:08:16;0.00;0.00;0.62;0.00;0.00;0.62;4.33;1.70;;;19.00;26.30;;;;;;2230154;62;20734;-65
2021/12/02 09:11:03;0.00;0.00;0.62;0.00;0.00;0.62;3.60;1.70;;;18.90;26.30;;;;;;2230044;62;20629;-64
2021/12/02 09:13:47;0.00;0.00;0.62;0.00;0.00;0.62;2.60;1.67;;;18.90;26.20;;;;;;2230444;62;20647;-64
2021/12/02 09:16:34;0.00;0.00;0.62;0.00;0.00;0.62;3.43;1.60;;;19.00;26.30;;;;;;2229217;62;20381;-69
2021/12/02 09:19:19;0.00;0.00;0.62;0.00;0.00;0.62;2.70;1.37;;;18.90;26.10;;;;;;2230286;62;20537;-64
2021/12/02 09:22:05;0.00;0.00;0.62;0.00;0.00;0.62;2.37;1.50;;;19.00;26.20;;;;;;2234426;62;20388;-61
2021/12/02 09:24:50;0.00;0.00;0.62;0.00;0.00;0.62;2.90;1.83;;;19.00;26.20;;;;;;2233467;62;20369;-65
2021/12/02 09:27:35;0.00;0.00;0.62;0.00;0.00;0.62;2.23;1.20;;;19.00;26.20;;;;;;2234169;62;20674;-63
2021/12/02 09:30:20;0.00;0.00;0.62;0.00;0.00;0.62;2.30;1.30;;;19.00;26.30;;;;;;2234170;62;20372;-68
2021/12/02 09:33:06;0.00;0.00;0.62;0.00;0.00;0.62;3.33;1.40;;;19.00;26.30;;;;;;2233333;62;20388;-64
2021/12/02 09:35:50;0.00;0.00;0.62;0.00;0.00;0.62;1.40;0.90;;;19.00;26.40;;;;;;2234183;62;20368;-65
2021/12/02 09:38:35;0.00;0.00;0.62;0.00;0.00;0.62;2.47;1.50;;;19.00;26.50;;;;;;2233547;62;20395;-65
2021/12/02 09:41:19;0.00;0.00;0.62;0.00;0.00;0.62;2.17;1.23;;;19.10;26.50;;;;;;2234262;62;20416;-65
2021/12/02 09:44:05;0.00;0.00;0.62;0.00;0.00;0.62;2.17;0.93;;;19.10;26.50;;;;;;2233815;62;20357;-64
2021/12/02 09:46:50;0.00;0.00;0.62;0.00;0.00;0.62;2.93;1.40;;;19.20;26.60;;;;;;2235821;62;20740;-64
2021/12/02 09:49:36;0.00;0.00;0.62;0.00;0.00;0.62;2.03;1.30;;;19.20;26.60;;;;;;2234189;62;20363;-64
2021/12/02 09:52:31;0.00;0.00;0.62;0.00;0.00;0.62;2.50;1.17;;;19.20;26.60;;;;;;2234231;62;20388;-63
2021/12/02 09:55:25;0.00;0.00;0.62;0.00;0.00;0.62;6.53;1.80;;;19.30;26.70;;;;;;2235822;62;20368;-63
2021/12/02 09:58:18;0.00;0.00;0.62;0.00;0.00;0.62;3.67;1.13;;;19.30;26.70;;;;;;2233918;62;20716;-63
2021/12/02 10:01:08;0.00;0.00;0.62;0.00;0.00;0.62;5.80;2.30;;;19.40;27.30;;;;;;2233316;62;20417;-66
2021/12/02 10:04:01;0.00;0.00;0.62;0.00;0.00;0.62;3.30;1.17;;;19.40;26.80;;;;;;2236630;62;20744;-63
2021/12/02 10:06:47;0.00;0.00;0.62;0.00;0.00;0.62;4.10;1.40;;;19.50;26.90;;;;;;2234181;62;20353;-62
2021/12/02 10:09:41;0.00;0.00;0.62;0.00;0.00;0.62;3.67;1.27;;;19.50;26.80;;;;;;2233295;62;20389;-63
2021/12/02 10:12:26;0.00;0.00;0.62;0.00;0.00;0.62;3.17;1.43;;;19.50;26.80;;;;;;2233840;62;20415;-63
2021/12/02 10:15:14;0.00;0.00;0.62;0.00;0.00;0.62;2.47;1.33;;;19.60;26.90;;;;;;2234431;62;20368;-63
2021/12/02 10:18:10;0.00;0.00;0.62;0.00;0.00;0.62;3.93;1.57;;;19.70;26.90;;;;;;2234239;62;20808;-62
2021/12/02 10:20:54;0.00;0.00;0.62;0.00;0.00;0.62;3.33;1.50;;;19.70;26.80;;;;;;2233465;62;20384;-62
2021/12/02 10:23:46;0.00;0.00;0.62;0.00;0.00;0.62;2.30;1.40;;;19.70;26.80;;;;;;2233236;62;20384;-63
2021/12/02 10:26:36;0.00;0.00;0.62;0.00;0.00;0.62;2.27;1.10;;;19.80;26.90;;;;;;2233958;62;20360;-64
2021/12/02 10:29:24;0.00;0.00;0.62;0.00;0.00;0.62;3.00;1.43;;;19.80;26.90;;;;;;2234057;62;20406;-63
2021/12/02 10:32:13;0.00;0.00;0.62;0.00;0.00;0.62;2.30;1.27;;;19.80;26.90;;;;;;2235278;62;20453;-63
2021/12/02 10:35:02;0.00;0.00;0.62;0.00;0.00;0.62;2.30;1.03;;;19.90;27.10;;;;;;2233947;62;20360;-63
2021/12/02 10:37:47;0.00;0.00;0.62;0.00;0.00;0.62;1.93;0.93;;;19.90;27.10;;;;;;2233146;62;20396;-63
2021/12/02 10:40:36;0.00;0.00;0.62;0.00;0.00;0.62;4.13;1.13;;;20.00;27.70;;;;;;2234091;62;20411;-63
2021/12/02 10:43:21;0.00;0.00;0.62;0.00;0.00;0.62;2.07;1.17;;;20.00;27.20;;;;;;2233887;62;20388;-64
2021/12/02 10:46:15;0.00;0.00;0.62;0.00;0.00;0.62;2.40;1.27;;;20.10;27.30;;;;;;2233092;62;20403;-63
2021/12/02 10:49:00;0.00;0.00;0.62;0.00;0.00;0.62;2.87;1.00;;;20.20;27.40;;;;;;2233717;62;20360;-63
2021/12/02 10:51:50;0.00;0.00;0.62;0.00;0.00;0.62;1.83;1.10;;;20.20;27.30;;;;;;2234029;62;20748;-63
2021/12/02 10:54:37;0.00;0.00;0.62;0.00;0.00;0.62;2.13;0.93;;;20.30;27.40;;;;;;2233189;62;20368;-63
2021/12/02 10:57:26;0.00;0.00;0.62;0.00;0.00;0.62;1.93;1.07;;;20.30;27.20;;;;;;2233877;62;20420;-63
2021/12/02 11:00:15;0.00;0.00;0.62;0.00;0.00;0.62;1.73;1.07;;;20.40;27.10;;;;;;2233103;62;20368;-63
2021/12/02 11:03:09;0.00;0.00;0.62;0.00;0.00;0.62;1.50;0.90;;;20.40;27.00;;;;;;2234055;62;20396;-63
2021/12/02 11:05:54;0.00;0.00;0.62;0.00;0.00;0.62;1.40;0.90;;;20.50;26.90;;;;;;2233848;62;20587;-64
2021/12/02 11:08:38;0.00;0.00;0.62;0.00;0.00;0.62;2.30;1.13;;;20.50;26.90;;;;;;2232908;62;20692;-63